OMDB/DXB METAR and TAF weather

Enter ICAO airport designator
Station Type Date Time Source
OMDB METAR 2021/06/24 06:00 UTC NOAA

OMDB 240600Z 22006KT 8000 NSC 41/14 Q1002 NOSIG


Station Type Date Time Source
OMDB Decoded METAR 2021/06/24 06:00 UTC NOAA

Dubai International Airport, United Arab Emirates (OMDB) 25-15N 055-20E 5M
Jun 24, 2021 - 02:00 AM EDT / 2021.06.24 0600 UTC
Wind: from the SW (220 degrees) at 7 MPH (6 KT):0
Visibility: 4 mile(s):0
Temperature: 105 F (41 C)
Heat index: 104.4 F (40.2 C):1
Dew Point: 57 F (14 C)
Relative Humidity: 20%
Pressure (altimeter): 29.59 in. Hg (1002 hPa)
ob: OMDB 240600Z 22006KT 8000 NSC 41/14 Q1002 NOSIG
cycle: 6

Station Type Date Time Source
OMDB TAF 2021/06/24 06:03 UTC NOAA

TAF OMDB 240500Z 2406/2512 19008KT 8000 NSC
BECMG 2408/2410 33014KT
BECMG 2415/2417 10005KT
BECMG 2503/2505 18012KT PROB30 2503/2509 4000 DU
BECMG 2508/2510 31013KT

Example: see airport list